sensor_id;sensor_type;location;lat;lon;timestamp;P1;durP1;ratioP1;P2;durP2;ratioP2
51479;SDS011;37556;44.570;18.612;2023-03-20T00:03:52;3.05;;;2.20;;
51479;SDS011;37556;44.570;18.612;2023-03-20T00:06:23;2.20;;;2.03;;
51479;SDS011;37556;44.570;18.612;2023-03-20T00:08:50;4.50;;;2.60;;
51479;SDS011;37556;44.570;18.612;2023-03-20T00:13:58;5.30;;;3.10;;
51479;SDS011;37556;44.570;18.612;2023-03-20T00:16:35;5.85;;;3.40;;
51479;SDS011;37556;44.570;18.612;2023-03-20T00:19:01;6.40;;;3.25;;
51479;SDS011;37556;44.570;18.612;2023-03-20T00:21:28;9.10;;;2.67;;
51479;SDS011;37556;44.570;18.612;2023-03-20T00:23:55;4.82;;;2.40;;
51479;SDS011;37556;44.570;18.612;2023-03-20T00:28:48;2.13;;;2.00;;
51479;SDS011;37556;44.570;18.612;2023-03-20T00:33:48;6.30;;;2.90;;
51479;SDS011;37556;44.570;18.612;2023-03-20T00:36:15;2.40;;;2.20;;
51479;SDS011;37556;44.570;18.612;2023-03-20T00:38:41;1.88;;;1.83;;
51479;SDS011;37556;44.570;18.612;2023-03-20T00:41:50;4.60;;;1.95;;
51479;SDS011;37556;44.570;18.612;2023-03-20T00:44:13;8.70;;;4.35;;
51479;SDS011;37556;44.570;18.612;2023-03-20T00:46:41;1.85;;;1.75;;
51479;SDS011;37556;44.570;18.612;2023-03-20T00:49:09;1.55;;;1.38;;
51479;SDS011;37556;44.570;18.612;2023-03-20T00:51:36;2.42;;;2.13;;
51479;SDS011;37556;44.570;18.612;2023-03-20T00:54:11;2.17;;;2.08;;
51479;SDS011;37556;44.570;18.612;2023-03-20T00:56:45;2.87;;;2.53;;
51479;SDS011;37556;44.570;18.612;2023-03-20T00:59:15;3.67;;;2.55;;
51479;SDS011;37556;44.570;18.612;2023-03-20T01:01:42;3.13;;;2.92;;
51479;SDS011;37556;44.570;18.612;2023-03-20T01:06:34;2.20;;;2.10;;
51479;SDS011;37556;44.570;18.612;2023-03-20T01:09:01;3.03;;;2.75;;
51479;SDS011;37556;44.570;18.612;2023-03-20T01:13:53;5.00;;;2.70;;
51479;SDS011;37556;44.570;18.612;2023-03-20T01:16:21;3.50;;;3.20;;
51479;SDS011;37556;44.570;18.612;2023-03-20T01:18:48;2.60;;;2.40;;
51479;SDS011;37556;44.570;18.612;2023-03-20T01:21:14;5.95;;;3.88;;
51479;SDS011;37556;44.570;18.612;2023-03-20T01:23:40;4.50;;;3.85;;
51479;SDS011;37556;44.570;18.612;2023-03-20T01:28:51;13.75;;;2.15;;
51479;SDS011;37556;44.570;18.612;2023-03-20T01:31:17;2.15;;;1.73;;
51479;SDS011;37556;44.570;18.612;2023-03-20T01:33:44;2.38;;;2.28;;
51479;SDS011;37556;44.570;18.612;2023-03-20T01:36:11;8.02;;;2.58;;
51479;SDS011;37556;44.570;18.612;2023-03-20T01:38:38;1.70;;;1.65;;
51479;SDS011;37556;44.570;18.612;2023-03-20T01:41:05;2.00;;;1.90;;
51479;SDS011;37556;44.570;18.612;2023-03-20T01:43:33;2.60;;;2.50;;
51479;SDS011;37556;44.570;18.612;2023-03-20T01:46:01;6.63;;;4.15;;
51479;SDS011;37556;44.570;18.612;2023-03-20T01:51:12;5.95;;;2.92;;
51479;SDS011;37556;44.570;18.612;2023-03-20T01:53:39;4.90;;;3.60;;
51479;SDS011;37556;44.570;18.612;2023-03-20T01:56:05;4.40;;;2.70;;
51479;SDS011;37556;44.570;18.612;2023-03-20T01:58:33;7.28;;;5.60;;
51479;SDS011;37556;44.570;18.612;2023-03-20T02:01:01;4.57;;;3.45;;
51479;SDS011;37556;44.570;18.612;2023-03-20T02:03:28;8.05;;;2.10;;
51479;SDS011;37556;44.570;18.612;2023-03-20T02:10:50;3.63;;;3.35;;
51479;SDS011;37556;44.570;18.612;2023-03-20T02:15:59;5.15;;;3.75;;
51479;SDS011;37556;44.570;18.612;2023-03-20T02:18:26;5.20;;;3.08;;
51479;SDS011;37556;44.570;18.612;2023-03-20T02:26:33;4.13;;;3.22;;
51479;SDS011;37556;44.570;18.612;2023-03-20T02:36:52;5.28;;;4.30;;
51479;SDS011;37556;44.570;18.612;2023-03-20T02:44:48;10.60;;;5.05;;
51479;SDS011;37556;44.570;18.612;2023-03-20T02:47:21;7.90;;;6.82;;
51479;SDS011;37556;44.570;18.612;2023-03-20T02:49:51;7.38;;;3.70;;
51479;SDS011;37556;44.570;18.612;2023-03-20T02:57:35;3.85;;;3.50;;
51479;SDS011;37556;44.570;18.612;2023-03-20T03:00:49;2.65;;;2.22;;
51479;SDS011;37556;44.570;18.612;2023-03-20T03:03:05;6.50;;;4.00;;
51479;SDS011;37556;44.570;18.612;2023-03-20T03:08:13;3.28;;;2.55;;
51479;SDS011;37556;44.570;18.612;2023-03-20T03:10:42;1.85;;;1.75;;
51479;SDS011;37556;44.570;18.612;2023-03-20T03:13:12;2.10;;;1.45;;
51479;SDS011;37556;44.570;18.612;2023-03-20T03:15:40;3.10;;;1.92;;
51479;SDS011;37556;44.570;18.612;2023-03-20T03:18:10;4.00;;;2.47;;
51479;SDS011;37556;44.570;18.612;2023-03-20T03:20:38;4.25;;;1.95;;
51479;SDS011;37556;44.570;18.612;2023-03-20T03:23:05;5.13;;;2.38;;
51479;SDS011;37556;44.570;18.612;2023-03-20T03:25:33;4.82;;;2.50;;
51479;SDS011;37556;44.570;18.612;2023-03-20T03:28:07;6.45;;;2.85;;
51479;SDS011;37556;44.570;18.612;2023-03-20T03:30:36;4.38;;;2.67;;
51479;SDS011;37556;44.570;18.612;2023-03-20T03:33:20;3.33;;;1.85;;
51479;SDS011;37556;44.570;18.612;2023-03-20T03:35:47;5.55;;;2.38;;
51479;SDS011;37556;44.570;18.612;2023-03-20T03:46:36;3.60;;;3.30;;
51479;SDS011;37556;44.570;18.612;2023-03-20T03:49:04;1.90;;;1.80;;
51479;SDS011;37556;44.570;18.612;2023-03-20T03:51:32;3.80;;;3.60;;
51479;SDS011;37556;44.570;18.612;2023-03-20T03:54:02;4.25;;;1.95;;
51479;SDS011;37556;44.570;18.612;2023-03-20T03:56:29;1.77;;;1.70;;
51479;SDS011;37556;44.570;18.612;2023-03-20T03:58:58;4.65;;;2.63;;
51479;SDS011;37556;44.570;18.612;2023-03-20T04:01:26;3.08;;;2.50;;
51479;SDS011;37556;44.570;18.612;2023-03-20T04:03:56;3.25;;;2.35;;
51479;SDS011;37556;44.570;18.612;2023-03-20T04:06:25;4.53;;;2.80;;
51479;SDS011;37556;44.570;18.612;2023-03-20T04:08:52;2.45;;;2.25;;
51479;SDS011;37556;44.570;18.612;2023-03-20T04:11:19;4.25;;;3.53;;
51479;SDS011;37556;44.570;18.612;2023-03-20T04:13:46;2.75;;;2.08;;
51479;SDS011;37556;44.570;18.612;2023-03-20T04:16:13;1.88;;;1.77;;
51479;SDS011;37556;44.570;18.612;2023-03-20T04:18:40;3.45;;;2.60;;
51479;SDS011;37556;44.570;18.612;2023-03-20T04:21:06;3.08;;;2.47;;
51479;SDS011;37556;44.570;18.612;2023-03-20T04:25:58;3.80;;;1.70;;
51479;SDS011;37556;44.570;18.612;2023-03-20T04:28:25;4.45;;;3.22;;
51479;SDS011;37556;44.570;18.612;2023-03-20T04:30:55;11.27;;;2.33;;
51479;SDS011;37556;44.570;18.612;2023-03-20T04:33:22;3.05;;;2.80;;
51479;SDS011;37556;44.570;18.612;2023-03-20T04:35:49;2.30;;;1.73;;
51479;SDS011;37556;44.570;18.612;2023-03-20T04:38:16;4.25;;;3.08;;
51479;SDS011;37556;44.570;18.612;2023-03-20T04:40:42;7.25;;;3.88;;
51479;SDS011;37556;44.570;18.612;2023-03-20T04:43:08;2.03;;;1.92;;
51479;SDS011;37556;44.570;18.612;2023-03-20T04:45:35;2.50;;;2.40;;
51479;SDS011;37556;44.570;18.612;2023-03-20T04:48:01;2.10;;;1.98;;
51479;SDS011;37556;44.570;18.612;2023-03-20T04:50:27;7.38;;;3.55;;
51479;SDS011;37556;44.570;18.612;2023-03-20T04:52:53;2.58;;;2.33;;
51479;SDS011;37556;44.570;18.612;2023-03-20T04:57:46;2.38;;;2.25;;
51479;SDS011;37556;44.570;18.612;2023-03-20T05:00:12;4.03;;;3.65;;
51479;SDS011;37556;44.570;18.612;2023-03-20T05:02:39;1.65;;;1.55;;
51479;SDS011;37556;44.570;18.612;2023-03-20T05:05:05;6.55;;;2.13;;
51479;SDS011;37556;44.570;18.612;2023-03-20T05:09:57;2.33;;;2.13;;
51479;SDS011;37556;44.570;18.612;2023-03-20T05:14:51;2.47;;;2.33;;
51479;SDS011;37556;44.570;18.612;2023-03-20T05:17:21;2.40;;;2.30;;
51479;SDS011;37556;44.570;18.612;2023-03-20T05:19:47;2.17;;;1.70;;
51479;SDS011;37556;44.570;18.612;2023-03-20T05:22:14;2.13;;;1.85;;
51479;SDS011;37556;44.570;18.612;2023-03-20T05:24:40;1.08;;;1.05;;
51479;SDS011;37556;44.570;18.612;2023-03-20T05:27:06;9.02;;;1.42;;
51479;SDS011;37556;44.570;18.612;2023-03-20T05:29:33;3.22;;;2.75;;
51479;SDS011;37556;44.570;18.612;2023-03-20T05:34:25;8.68;;;3.17;;
51479;SDS011;37556;44.570;18.612;2023-03-20T05:39:17;5.63;;;3.63;;
51479;SDS011;37556;44.570;18.612;2023-03-20T05:41:43;11.93;;;6.05;;
51479;SDS011;37556;44.570;18.612;2023-03-20T05:46:36;5.43;;;3.47;;
51479;SDS011;37556;44.570;18.612;2023-03-20T05:49:02;3.70;;;2.92;;
51479;SDS011;37556;44.570;18.612;2023-03-20T05:51:28;6.97;;;2.58;;
51479;SDS011;37556;44.570;18.612;2023-03-20T05:56:20;3.33;;;3.03;;
51479;SDS011;37556;44.570;18.612;2023-03-20T05:58:47;1.40;;;1.40;;
51479;SDS011;37556;44.570;18.612;2023-03-20T06:01:13;3.72;;;2.28;;
51479;SDS011;37556;44.570;18.612;2023-03-20T06:03:42;3.83;;;2.72;;
51479;SDS011;37556;44.570;18.612;2023-03-20T06:06:08;3.83;;;1.98;;
51479;SDS011;37556;44.570;18.612;2023-03-20T06:08:34;11.60;;;5.68;;
51479;SDS011;37556;44.570;18.612;2023-03-20T06:11:01;14.25;;;6.13;;
51479;SDS011;37556;44.570;18.612;2023-03-20T06:13:28;4.50;;;3.85;;
51479;SDS011;37556;44.570;18.612;2023-03-20T06:15:55;7.85;;;4.28;;
51479;SDS011;37556;44.570;18.612;2023-03-20T06:18:21;8.25;;;4.90;;
51479;SDS011;37556;44.570;18.612;2023-03-20T06:20:53;4.95;;;4.55;;
51479;SDS011;37556;44.570;18.612;2023-03-20T06:23:19;15.15;;;9.93;;
51479;SDS011;37556;44.570;18.612;2023-03-20T06:25:46;37.15;;;24.20;;
51479;SDS011;37556;44.570;18.612;2023-03-20T06:28:12;27.45;;;17.00;;
51479;SDS011;37556;44.570;18.612;2023-03-20T06:33:05;18.20;;;12.32;;
51479;SDS011;37556;44.570;18.612;2023-03-20T06:35:31;7.35;;;6.50;;
51479;SDS011;37556;44.570;18.612;2023-03-20T06:37:58;10.52;;;7.55;;
51479;SDS011;37556;44.570;18.612;2023-03-20T06:40:24;6.03;;;4.32;;
51479;SDS011;37556;44.570;18.612;2023-03-20T06:42:54;5.88;;;3.33;;
51479;SDS011;37556;44.570;18.612;2023-03-20T06:45:20;5.13;;;3.65;;
51479;SDS011;37556;44.570;18.612;2023-03-20T06:47:47;9.40;;;3.70;;
51479;SDS011;37556;44.570;18.612;2023-03-20T06:50:13;13.18;;;5.00;;
51479;SDS011;37556;44.570;18.612;2023-03-20T06:52:45;5.38;;;4.97;;
51479;SDS011;37556;44.570;18.612;2023-03-20T06:55:16;5.07;;;4.57;;
51479;SDS011;37556;44.570;18.612;2023-03-20T07:00:55;17.65;;;6.18;;
51479;SDS011;37556;44.570;18.612;2023-03-20T07:03:24;3.58;;;3.28;;
51479;SDS011;37556;44.570;18.612;2023-03-20T07:08:16;8.95;;;3.85;;
51479;SDS011;37556;44.570;18.612;2023-03-20T07:13:09;8.52;;;5.00;;
51479;SDS011;37556;44.570;18.612;2023-03-20T07:15:36;6.97;;;3.42;;
51479;SDS011;37556;44.570;18.612;2023-03-20T07:20:51;6.57;;;3.65;;
51479;SDS011;37556;44.570;18.612;2023-03-20T07:23:18;8.50;;;5.75;;
51479;SDS011;37556;44.570;18.612;2023-03-20T07:25:44;7.38;;;4.70;;
51479;SDS011;37556;44.570;18.612;2023-03-20T07:28:11;5.10;;;4.75;;
51479;SDS011;37556;44.570;18.612;2023-03-20T07:30:37;7.68;;;5.57;;
51479;SDS011;37556;44.570;18.612;2023-03-20T07:35:30;2.83;;;2.63;;
51479;SDS011;37556;44.570;18.612;2023-03-20T07:38:02;4.60;;;4.10;;
51479;SDS011;37556;44.570;18.612;2023-03-20T07:40:30;7.60;;;6.20;;
51479;SDS011;37556;44.570;18.612;2023-03-20T07:42:56;3.28;;;3.08;;
51479;SDS011;37556;44.570;18.612;2023-03-20T07:47:49;6.32;;;4.53;;
51479;SDS011;37556;44.570;18.612;2023-03-20T07:53:27;3.33;;;2.83;;
51479;SDS011;37556;44.570;18.612;2023-03-20T07:56:23;3.83;;;3.47;;
51479;SDS011;37556;44.570;18.612;2023-03-20T08:01:23;4.38;;;2.28;;
51479;SDS011;37556;44.570;18.612;2023-03-20T08:06:53;3.40;;;2.20;;
51479;SDS011;37556;44.570;18.612;2023-03-20T08:09:20;3.45;;;2.22;;
51479;SDS011;37556;44.570;18.612;2023-03-20T08:11:46;3.35;;;2.80;;
51479;SDS011;37556;44.570;18.612;2023-03-20T08:16:38;5.38;;;3.17;;
51479;SDS011;37556;44.570;18.612;2023-03-20T08:19:05;5.80;;;3.80;;
51479;SDS011;37556;44.570;18.612;2023-03-20T08:21:32;3.38;;;2.92;;
51479;SDS011;37556;44.570;18.612;2023-03-20T08:23:58;6.70;;;4.43;;
51479;SDS011;37556;44.570;18.612;2023-03-20T08:28:50;3.95;;;3.75;;
51479;SDS011;37556;44.570;18.612;2023-03-20T08:31:16;3.53;;;3.20;;
51479;SDS011;37556;44.570;18.612;2023-03-20T08:36:12;3.20;;;2.92;;
51479;SDS011;37556;44.570;18.612;2023-03-20T08:38:45;5.90;;;4.47;;
51479;SDS011;37556;44.570;18.612;2023-03-20T08:41:11;4.93;;;3.83;;
51479;SDS011;37556;44.570;18.612;2023-03-20T08:43:37;14.43;;;5.25;;
51479;SDS011;37556;44.570;18.612;2023-03-20T08:48:29;5.78;;;3.40;;
51479;SDS011;37556;44.570;18.612;2023-03-20T08:53:21;5.85;;;4.20;;
51479;SDS011;37556;44.570;18.612;2023-03-20T08:58:14;9.30;;;5.53;;
51479;SDS011;37556;44.570;18.612;2023-03-20T09:00:40;4.13;;;3.75;;
51479;SDS011;37556;44.570;18.612;2023-03-20T09:05:35;4.70;;;4.07;;
51479;SDS011;37556;44.570;18.612;2023-03-20T09:08:01;7.05;;;5.82;;
51479;SDS011;37556;44.570;18.612;2023-03-20T09:10:27;14.60;;;6.57;;
51479;SDS011;37556;44.570;18.612;2023-03-20T09:12:53;8.88;;;6.35;;
51479;SDS011;37556;44.570;18.612;2023-03-20T09:15:20;7.18;;;4.15;;
51479;SDS011;37556;44.570;18.612;2023-03-20T09:17:46;7.22;;;6.25;;
51479;SDS011;37556;44.570;18.612;2023-03-20T09:22:38;11.15;;;4.93;;
51479;SDS011;37556;44.570;18.612;2023-03-20T09:31:13;3.53;;;3.33;;
51479;SDS011;37556;44.570;18.612;2023-03-20T09:33:40;8.88;;;3.97;;
51479;SDS011;37556;44.570;18.612;2023-03-20T09:36:06;7.00;;;4.70;;
51479;SDS011;37556;44.570;18.612;2023-03-20T09:38:35;4.45;;;3.60;;
51479;SDS011;37556;44.570;18.612;2023-03-20T09:41:02;2.85;;;2.63;;
51479;SDS011;37556;44.570;18.612;2023-03-20T09:51:59;7.90;;;4.15;;
51479;SDS011;37556;44.570;18.612;2023-03-20T10:00:39;4.75;;;3.40;;
51479;SDS011;37556;44.570;18.612;2023-03-20T10:03:21;4.10;;;3.35;;
51479;SDS011;37556;44.570;18.612;2023-03-20T10:05:53;4.22;;;3.92;;
51479;SDS011;37556;44.570;18.612;2023-03-20T10:08:42;3.65;;;3.38;;
51479;SDS011;37556;44.570;18.612;2023-03-20T10:21:51;9.15;;;3.95;;
51479;SDS011;37556;44.570;18.612;2023-03-20T10:24:29;15.57;;;5.07;;
51479;SDS011;37556;44.570;18.612;2023-03-20T10:27:13;3.22;;;2.97;;
51479;SDS011;37556;44.570;18.612;2023-03-20T10:32:37;3.25;;;3.08;;
51479;SDS011;37556;44.570;18.612;2023-03-20T10:38:02;6.63;;;4.25;;
51479;SDS011;37556;44.570;18.612;2023-03-20T10:40:36;2.30;;;2.05;;
51479;SDS011;37556;44.570;18.612;2023-03-20T10:43:08;9.52;;;3.10;;
51479;SDS011;37556;44.570;18.612;2023-03-20T10:45:41;2.47;;;2.28;;
51479;SDS011;37556;44.570;18.612;2023-03-20T10:48:12;4.65;;;4.30;;
51479;SDS011;37556;44.570;18.612;2023-03-20T10:50:41;2.47;;;2.38;;
51479;SDS011;37556;44.570;18.612;2023-03-20T10:53:16;3.97;;;2.38;;
51479;SDS011;37556;44.570;18.612;2023-03-20T10:55:53;2.30;;;2.20;;
51479;SDS011;37556;44.570;18.612;2023-03-20T10:58:25;3.58;;;3.28;;
51479;SDS011;37556;44.570;18.612;2023-03-20T11:00:54;3.35;;;3.00;;
51479;SDS011;37556;44.570;18.612;2023-03-20T11:03:35;2.17;;;1.85;;
51479;SDS011;37556;44.570;18.612;2023-03-20T11:12:14;15.50;;;3.00;;
51479;SDS011;37556;44.570;18.612;2023-03-20T11:14:46;2.63;;;2.42;;
51479;SDS011;37556;44.570;18.612;2023-03-20T11:26:48;2.92;;;1.65;;
51479;SDS011;37556;44.570;18.612;2023-03-20T11:29:27;1.90;;;1.42;;
51479;SDS011;37556;44.570;18.612;2023-03-20T11:31:54;1.50;;;1.15;;
51479;SDS011;37556;44.570;18.612;2023-03-20T11:34:35;0.28;;;0.28;;
51479;SDS011;37556;44.570;18.612;2023-03-20T11:37:05;1.23;;;0.80;;
51479;SDS011;37556;44.570;18.612;2023-03-20T11:39:31;0.95;;;0.95;;
51479;SDS011;37556;44.570;18.612;2023-03-20T11:41:59;0.85;;;0.85;;
51479;SDS011;37556;44.570;18.612;2023-03-20T11:49:22;0.75;;;0.75;;
51479;SDS011;37556;44.570;18.612;2023-03-20T11:51:50;1.25;;;1.15;;
51479;SDS011;37556;44.570;18.612;2023-03-20T11:54:21;1.75;;;1.65;;
51479;SDS011;37556;44.570;18.612;2023-03-20T11:56:52;5.78;;;1.35;;
51479;SDS011;37556;44.570;18.612;2023-03-20T11:59:19;1.63;;;1.42;;
51479;SDS011;37556;44.570;18.612;2023-03-20T12:01:47;4.30;;;2.80;;
51479;SDS011;37556;44.570;18.612;2023-03-20T12:04:18;2.25;;;2.08;;
51479;SDS011;37556;44.570;18.612;2023-03-20T12:06:46;3.25;;;2.47;;
51479;SDS011;37556;44.570;18.612;2023-03-20T12:09:22;5.82;;;3.42;;
51479;SDS011;37556;44.570;18.612;2023-03-20T12:11:57;3.22;;;2.50;;
51479;SDS011;37556;44.570;18.612;2023-03-20T12:14:26;2.95;;;1.67;;
51479;SDS011;37556;44.570;18.612;2023-03-20T12:17:01;3.35;;;2.85;;
51479;SDS011;37556;44.570;18.612;2023-03-20T12:19:30;3.33;;;3.13;;
51479;SDS011;37556;44.570;18.612;2023-03-20T12:22:11;6.38;;;3.40;;
51479;SDS011;37556;44.570;18.612;2023-03-20T12:24:44;4.38;;;3.78;;
51479;SDS011;37556;44.570;18.612;2023-03-20T12:27:26;13.60;;;7.13;;
51479;SDS011;37556;44.570;18.612;2023-03-20T12:32:53;2.00;;;1.88;;
51479;SDS011;37556;44.570;18.612;2023-03-20T12:35:14;1.60;;;1.50;;
51479;SDS011;37556;44.570;18.612;2023-03-20T12:46:25;0.80;;;0.80;;
51479;SDS011;37556;44.570;18.612;2023-03-20T12:49:17;0.70;;;0.70;;
51479;SDS011;37556;44.570;18.612;2023-03-20T12:51:47;0.80;;;0.80;;
51479;SDS011;37556;44.570;18.612;2023-03-20T12:59:38;2.45;;;2.03;;
51479;SDS011;37556;44.570;18.612;2023-03-20T13:07:13;1.50;;;1.50;;
51479;SDS011;37556;44.570;18.612;2023-03-20T13:09:54;1.65;;;1.55;;
51479;SDS011;37556;44.570;18.612;2023-03-20T13:12:29;3.13;;;2.13;;
51479;SDS011;37556;44.570;18.612;2023-03-20T13:17:27;5.35;;;3.90;;
51479;SDS011;37556;44.570;18.612;2023-03-20T13:40:57;2.23;;;2.13;;
51479;SDS011;37556;44.570;18.612;2023-03-20T13:46:05;2.17;;;1.80;;
51479;SDS011;37556;44.570;18.612;2023-03-20T13:51:07;0.63;;;0.63;;
51479;SDS011;37556;44.570;18.612;2023-03-20T14:03:52;2.28;;;2.08;;
51479;SDS011;37556;44.570;18.612;2023-03-20T14:08:57;0.57;;;0.38;;
51479;SDS011;37556;44.570;18.612;2023-03-20T14:14:07;0.08;;;0.08;;
51479;SDS011;37556;44.570;18.612;2023-03-20T14:16:33;0.43;;;0.38;;
51479;SDS011;37556;44.570;18.612;2023-03-20T14:19:33;4.22;;;2.42;;
51479;SDS011;37556;44.570;18.612;2023-03-20T14:21:52;6.15;;;1.77;;
51479;SDS011;37556;44.570;18.612;2023-03-20T14:24:19;1.73;;;1.33;;
51479;SDS011;37556;44.570;18.612;2023-03-20T14:26:47;1.02;;;0.95;;
51479;SDS011;37556;44.570;18.612;2023-03-20T14:36:57;6.13;;;0.95;;
51479;SDS011;37556;44.570;18.612;2023-03-20T14:42:23;1.58;;;1.48;;
51479;SDS011;37556;44.570;18.612;2023-03-20T14:48:02;1.15;;;1.15;;
51479;SDS011;37556;44.570;18.612;2023-03-20T14:50:25;1.65;;;1.52;;
51479;SDS011;37556;44.570;18.612;2023-03-20T14:52:58;1.10;;;1.10;;
51479;SDS011;37556;44.570;18.612;2023-03-20T14:57:52;0.88;;;0.63;;
51479;SDS011;37556;44.570;18.612;2023-03-20T15:02:49;1.75;;;1.23;;
51479;SDS011;37556;44.570;18.612;2023-03-20T15:05:23;4.03;;;1.42;;
51479;SDS011;37556;44.570;18.612;2023-03-20T15:07:50;0.85;;;0.85;;
51479;SDS011;37556;44.570;18.612;2023-03-20T15:10:17;0.50;;;0.50;;
51479;SDS011;37556;44.570;18.612;2023-03-20T15:12:43;0.40;;;0.40;;
51479;SDS011;37556;44.570;18.612;2023-03-20T15:15:26;0.20;;;0.20;;
51479;SDS011;37556;44.570;18.612;2023-03-20T15:17:53;1.95;;;0.73;;
51479;SDS011;37556;44.570;18.612;2023-03-20T15:20:23;0.30;;;0.30;;
51479;SDS011;37556;44.570;18.612;2023-03-20T15:22:53;0.47;;;0.25;;
51479;SDS011;37556;44.570;18.612;2023-03-20T15:25:21;0.25;;;0.25;;
51479;SDS011;37556;44.570;18.612;2023-03-20T15:27:48;3.10;;;0.80;;
51479;SDS011;37556;44.570;18.612;2023-03-20T15:30:16;0.55;;;0.55;;
51479;SDS011;37556;44.570;18.612;2023-03-20T15:32:43;0.60;;;0.60;;
51479;SDS011;37556;44.570;18.612;2023-03-20T15:35:15;0.22;;;0.22;;
51479;SDS011;37556;44.570;18.612;2023-03-20T15:37:43;6.93;;;1.15;;
51479;SDS011;37556;44.570;18.612;2023-03-20T15:40:11;3.75;;;1.30;;
51479;SDS011;37556;44.570;18.612;2023-03-20T15:42:38;0.57;;;0.57;;
51479;SDS011;37556;44.570;18.612;2023-03-20T15:47:30;0.20;;;0.20;;
51479;SDS011;37556;44.570;18.612;2023-03-20T15:52:30;0.20;;;0.20;;
51479;SDS011;37556;44.570;18.612;2023-03-20T15:54:58;0.57;;;0.55;;
51479;SDS011;37556;44.570;18.612;2023-03-20T15:57:32;0.20;;;0.20;;
51479;SDS011;37556;44.570;18.612;2023-03-20T15:59:59;0.73;;;0.73;;
51479;SDS011;37556;44.570;18.612;2023-03-20T16:02:25;1.40;;;1.30;;
51479;SDS011;37556;44.570;18.612;2023-03-20T16:04:53;2.55;;;1.88;;
51479;SDS011;37556;44.570;18.612;2023-03-20T16:07:21;0.43;;;0.38;;
51479;SDS011;37556;44.570;18.612;2023-03-20T16:09:48;1.40;;;1.40;;
51479;SDS011;37556;44.570;18.612;2023-03-20T16:12:15;1.70;;;0.77;;
51479;SDS011;37556;44.570;18.612;2023-03-20T16:14:42;1.60;;;1.50;;
51479;SDS011;37556;44.570;18.612;2023-03-20T16:17:09;0.40;;;0.40;;
51479;SDS011;37556;44.570;18.612;2023-03-20T16:19:35;4.07;;;2.63;;
51479;SDS011;37556;44.570;18.612;2023-03-20T16:24:35;3.25;;;2.97;;
51479;SDS011;37556;44.570;18.612;2023-03-20T16:27:07;1.65;;;1.55;;
51479;SDS011;37556;44.570;18.612;2023-03-20T16:29:33;1.38;;;0.73;;
51479;SDS011;37556;44.570;18.612;2023-03-20T16:34:29;0.10;;;0.10;;
51479;SDS011;37556;44.570;18.612;2023-03-20T16:36:57;0.63;;;0.63;;
51479;SDS011;37556;44.570;18.612;2023-03-20T16:39:28;0.95;;;0.95;;
51479;SDS011;37556;44.570;18.612;2023-03-20T16:42:01;1.13;;;1.05;;
51479;SDS011;37556;44.570;18.612;2023-03-20T16:44:30;1.17;;;1.13;;
51479;SDS011;37556;44.570;18.612;2023-03-20T16:47:02;0.20;;;0.20;;
51479;SDS011;37556;44.570;18.612;2023-03-20T16:51:56;0.68;;;0.68;;
51479;SDS011;37556;44.570;18.612;2023-03-20T16:54:23;0.63;;;0.63;;
51479;SDS011;37556;44.570;18.612;2023-03-20T16:56:53;0.82;;;0.82;;
51479;SDS011;37556;44.570;18.612;2023-03-20T16:59:20;4.30;;;2.70;;
51479;SDS011;37556;44.570;18.612;2023-03-20T17:01:47;1.95;;;1.83;;
51479;SDS011;37556;44.570;18.612;2023-03-20T17:04:27;1.98;;;1.88;;
51479;SDS011;37556;44.570;18.612;2023-03-20T17:06:54;3.53;;;2.47;;
51479;SDS011;37556;44.570;18.612;2023-03-20T17:09:29;2.03;;;1.58;;
51479;SDS011;37556;44.570;18.612;2023-03-20T17:11:57;1.58;;;1.48;;
51479;SDS011;37556;44.570;18.612;2023-03-20T17:14:25;3.22;;;1.60;;
51479;SDS011;37556;44.570;18.612;2023-03-20T17:19:18;8.02;;;3.10;;
51479;SDS011;37556;44.570;18.612;2023-03-20T17:21:45;2.92;;;2.72;;
51479;SDS011;37556;44.570;18.612;2023-03-20T17:24:12;3.58;;;2.90;;
51479;SDS011;37556;44.570;18.612;2023-03-20T17:26:39;10.13;;;2.58;;
51479;SDS011;37556;44.570;18.612;2023-03-20T17:29:06;3.90;;;3.45;;
51479;SDS011;37556;44.570;18.612;2023-03-20T17:31:34;8.50;;;2.42;;
51479;SDS011;37556;44.570;18.612;2023-03-20T17:36:27;2.83;;;1.83;;
51479;SDS011;37556;44.570;18.612;2023-03-20T17:38:55;1.00;;;0.90;;
51479;SDS011;37556;44.570;18.612;2023-03-20T17:41:22;1.33;;;1.30;;
51479;SDS011;37556;44.570;18.612;2023-03-20T17:43:49;0.68;;;0.68;;
51479;SDS011;37556;44.570;18.612;2023-03-20T17:48:45;6.70;;;1.33;;
51479;SDS011;37556;44.570;18.612;2023-03-20T17:51:11;2.65;;;1.05;;
51479;SDS011;37556;44.570;18.612;2023-03-20T17:53:37;5.60;;;3.05;;
51479;SDS011;37556;44.570;18.612;2023-03-20T17:56:08;3.53;;;3.20;;
51479;SDS011;37556;44.570;18.612;2023-03-20T17:58:35;1.27;;;1.17;;
51479;SDS011;37556;44.570;18.612;2023-03-20T18:01:01;1.98;;;1.80;;
51479;SDS011;37556;44.570;18.612;2023-03-20T18:03:27;1.88;;;1.77;;
51479;SDS011;37556;44.570;18.612;2023-03-20T18:05:53;1.55;;;1.52;;
51479;SDS011;37556;44.570;18.612;2023-03-20T18:08:20;2.17;;;1.63;;
51479;SDS011;37556;44.570;18.612;2023-03-20T18:10:47;0.75;;;0.75;;
51479;SDS011;37556;44.570;18.612;2023-03-20T18:13:14;2.10;;;1.98;;
51479;SDS011;37556;44.570;18.612;2023-03-20T18:15:44;3.35;;;3.08;;
51479;SDS011;37556;44.570;18.612;2023-03-20T18:18:11;5.30;;;1.40;;
51479;SDS011;37556;44.570;18.612;2023-03-20T18:20:38;6.25;;;3.05;;
51479;SDS011;37556;44.570;18.612;2023-03-20T18:23:05;4.43;;;2.30;;
51479;SDS011;37556;44.570;18.612;2023-03-20T18:25:31;7.43;;;5.43;;
51479;SDS011;37556;44.570;18.612;2023-03-20T18:30:25;5.60;;;3.75;;
51479;SDS011;37556;44.570;18.612;2023-03-20T18:32:51;2.60;;;2.38;;
51479;SDS011;37556;44.570;18.612;2023-03-20T18:37:43;11.63;;;5.47;;
51479;SDS011;37556;44.570;18.612;2023-03-20T18:42:35;5.03;;;3.35;;
51479;SDS011;37556;44.570;18.612;2023-03-20T18:45:02;6.43;;;4.40;;
51479;SDS011;37556;44.570;18.612;2023-03-20T18:47:28;11.60;;;6.15;;
51479;SDS011;37556;44.570;18.612;2023-03-20T18:49:54;9.10;;;5.43;;
51479;SDS011;37556;44.570;18.612;2023-03-20T18:52:20;6.65;;;5.88;;
51479;SDS011;37556;44.570;18.612;2023-03-20T18:54:46;17.15;;;8.43;;
51479;SDS011;37556;44.570;18.612;2023-03-20T18:57:13;7.10;;;5.72;;
51479;SDS011;37556;44.570;18.612;2023-03-20T18:59:39;7.22;;;4.90;;
51479;SDS011;37556;44.570;18.612;2023-03-20T19:02:05;7.18;;;6.05;;
51479;SDS011;37556;44.570;18.612;2023-03-20T19:06:59;4.45;;;3.10;;
51479;SDS011;37556;44.570;18.612;2023-03-20T19:09:25;7.65;;;3.05;;
51479;SDS011;37556;44.570;18.612;2023-03-20T19:11:51;2.33;;;2.03;;
51479;SDS011;37556;44.570;18.612;2023-03-20T19:14:17;1.75;;;1.42;;
51479;SDS011;37556;44.570;18.612;2023-03-20T19:16:43;3.55;;;1.98;;
51479;SDS011;37556;44.570;18.612;2023-03-20T19:19:10;3.95;;;2.25;;
51479;SDS011;37556;44.570;18.612;2023-03-20T19:21:38;3.47;;;2.15;;
51479;SDS011;37556;44.570;18.612;2023-03-20T19:24:06;4.22;;;2.67;;
51479;SDS011;37556;44.570;18.612;2023-03-20T19:26:33;2.47;;;2.20;;
51479;SDS011;37556;44.570;18.612;2023-03-20T19:28:59;4.40;;;2.55;;
51479;SDS011;37556;44.570;18.612;2023-03-20T19:31:26;3.75;;;1.67;;
51479;SDS011;37556;44.570;18.612;2023-03-20T19:33:52;5.93;;;2.15;;
51479;SDS011;37556;44.570;18.612;2023-03-20T19:36:27;2.35;;;1.80;;
51479;SDS011;37556;44.570;18.612;2023-03-20T19:38:55;5.35;;;1.98;;
51479;SDS011;37556;44.570;18.612;2023-03-20T19:41:21;1.75;;;1.58;;
51479;SDS011;37556;44.570;18.612;2023-03-20T19:46:14;3.38;;;2.17;;